createdAt,value
2022-08-23T00:00:13.425Z,17.27
2022-08-23T00:02:43.746Z,13.00
2022-08-23T00:05:13.210Z,12.25
2022-08-23T00:07:45.020Z,14.63
2022-08-23T00:10:18.032Z,5.38
2022-08-23T00:12:48.517Z,5.22
2022-08-23T00:15:21.666Z,5.25
2022-08-23T00:17:51.564Z,5.23
2022-08-23T00:20:21.482Z,5.00
2022-08-23T00:22:50.981Z,6.72
2022-08-23T00:25:21.270Z,5.07
2022-08-23T00:27:50.864Z,4.57
2022-08-23T00:30:20.389Z,4.60
2022-08-23T00:32:49.772Z,5.28
2022-08-23T00:35:26.383Z,4.60
2022-08-23T00:38:31.756Z,4.78
2022-08-23T00:40:52.747Z,5.22
2022-08-23T00:43:55.823Z,6.28
2022-08-23T00:47:15.728Z,8.02
2022-08-23T00:49:50.839Z,7.57
2022-08-23T00:52:38.583Z,3.50
2022-08-23T00:55:08.623Z,4.38
2022-08-23T00:57:38.510Z,4.43
2022-08-23T01:00:10.792Z,4.50
2022-08-23T01:02:41.341Z,4.32
2022-08-23T01:05:11.316Z,3.60
2022-08-23T01:08:01.302Z,5.05
2022-08-23T01:10:35.295Z,4.25
2022-08-23T01:16:15.007Z,3.90
2022-08-23T01:18:45.195Z,3.92
2022-08-23T01:21:41.587Z,6.55
2022-08-23T01:24:25.242Z,5.35
2022-08-23T01:27:02.532Z,9.95
2022-08-23T01:29:32.023Z,10.23
2022-08-23T01:32:01.916Z,4.57
2022-08-23T01:34:34.631Z,4.55
2022-08-23T01:37:09.062Z,3.05
2022-08-23T01:39:39.137Z,3.30
2022-08-23T01:42:10.069Z,2.92
2022-08-23T01:44:39.896Z,5.63
2022-08-23T01:47:09.537Z,4.35
2022-08-23T01:49:38.777Z,3.50
2022-08-23T01:52:10.904Z,3.95
2022-08-23T01:54:42.183Z,3.92
2022-08-23T01:57:12.274Z,3.88
2022-08-23T01:59:41.889Z,3.47
2022-08-23T02:04:45.423Z,4.85
2022-08-23T02:07:15.075Z,5.47
2022-08-23T02:09:48.217Z,4.38
2022-08-23T02:12:17.750Z,5.28
2022-08-23T02:14:47.238Z,4.35
2022-08-23T02:17:17.572Z,4.38
2022-08-23T02:19:47.413Z,7.05
2022-08-23T02:22:16.855Z,3.28
2022-08-23T02:24:47.959Z,4.30
2022-08-23T02:27:18.523Z,4.22
2022-08-23T02:29:52.785Z,3.78
2022-08-23T02:32:22.421Z,3.88
2022-08-23T02:35:05.652Z,3.70
2022-08-23T02:37:35.662Z,2.63
2022-08-23T02:40:07.734Z,3.47
2022-08-23T02:42:36.948Z,3.00
2022-08-23T02:45:09.465Z,2.67
2022-08-23T02:47:38.888Z,3.42
2022-08-23T02:50:11.333Z,3.25
2022-08-23T02:52:40.755Z,2.90
2022-08-23T02:55:10.606Z,3.00
2022-08-23T02:57:41.186Z,4.38
2022-08-23T03:00:12.891Z,2.20
2022-08-23T03:02:42.549Z,3.35
2022-08-23T03:05:14.027Z,2.45
2022-08-23T03:07:43.765Z,3.95
2022-08-23T03:10:14.185Z,2.30
2022-08-23T03:12:43.662Z,3.13
2022-08-23T03:15:13.392Z,2.50
2022-08-23T03:17:43.054Z,2.15
2022-08-23T03:20:12.955Z,3.47
2022-08-23T03:22:48.363Z,1.90
2022-08-23T03:25:24.598Z,2.67
2022-08-23T03:27:53.966Z,3.30
2022-08-23T03:30:23.342Z,2.83
2022-08-23T03:32:52.711Z,2.22
2022-08-23T03:35:22.097Z,3.47
2022-08-23T03:37:54.741Z,2.10
2022-08-23T03:40:24.589Z,1.63
2022-08-23T03:42:54.780Z,2.58
2022-08-23T03:45:23.866Z,1.77
2022-08-23T03:47:53.138Z,2.15
2022-08-23T03:50:22.412Z,1.67
2022-08-23T03:52:51.622Z,2.47
2022-08-23T03:55:21.063Z,1.88
2022-08-23T03:57:50.257Z,1.83
2022-08-23T04:00:20.246Z,2.20
2022-08-23T04:02:50.032Z,3.22
2022-08-23T04:05:19.502Z,1.88
2022-08-23T04:07:49.041Z,2.05
2022-08-23T04:10:18.799Z,3.10
2022-08-23T04:12:48.083Z,2.75
2022-08-23T04:15:17.251Z,1.88
2022-08-23T04:17:46.419Z,4.13
2022-08-23T04:20:15.509Z,2.63
2022-08-23T04:22:46.033Z,3.35
2022-08-23T04:25:34.983Z,2.08
2022-08-23T04:28:08.175Z,2.13
2022-08-23T04:30:37.529Z,2.90
2022-08-23T04:33:10.721Z,1.60
2022-08-23T04:38:24.400Z,1.92
2022-08-23T04:41:13.205Z,2.67
2022-08-23T04:43:43.617Z,2.10
2022-08-23T04:46:16.551Z,2.33
2022-08-23T04:48:47.785Z,2.53
2022-08-23T04:51:18.212Z,3.03
2022-08-23T04:53:48.260Z,1.63
2022-08-23T04:56:17.587Z,1.70
2022-08-23T04:58:47.074Z,1.90
2022-08-23T05:01:17.384Z,1.67
2022-08-23T05:03:46.871Z,1.52
2022-08-23T05:06:16.172Z,2.70
2022-08-23T05:08:45.503Z,2.13
2022-08-23T05:11:14.904Z,1.65
2022-08-23T05:13:44.354Z,1.20
2022-08-23T05:16:14.040Z,1.30
2022-08-23T05:18:43.526Z,1.10
2022-08-23T05:21:22.051Z,1.70
2022-08-23T05:23:54.670Z,0.90
2022-08-23T05:26:24.935Z,1.42
2022-08-23T05:28:54.341Z,1.20
2022-08-23T05:31:30.434Z,2.35
2022-08-23T05:34:00.260Z,1.30
2022-08-23T05:36:29.733Z,1.25
2022-08-23T05:38:59.745Z,2.30
2022-08-23T05:41:37.732Z,2.97
2022-08-23T05:44:11.677Z,1.35
2022-08-23T05:46:43.510Z,0.82
2022-08-23T05:49:13.315Z,1.23
2022-08-23T05:51:51.649Z,1.15
2022-08-23T05:54:21.527Z,0.93
2022-08-23T05:56:50.876Z,1.23
2022-08-23T05:59:21.530Z,1.02
2022-08-23T06:01:51.126Z,0.85
2022-08-23T06:04:22.677Z,1.00
2022-08-23T06:06:52.289Z,1.08
2022-08-23T06:09:21.762Z,1.50
2022-08-23T06:11:51.401Z,1.33
2022-08-23T06:14:21.014Z,0.90
2022-08-23T06:16:55.822Z,1.10
2022-08-23T06:19:26.726Z,0.70
2022-08-23T06:21:56.709Z,1.17
2022-08-23T06:24:28.021Z,1.30
2022-08-23T06:26:57.408Z,0.98
2022-08-23T06:29:26.850Z,1.10
2022-08-23T06:31:57.062Z,0.82
2022-08-23T06:34:27.824Z,1.83
2022-08-23T06:36:59.896Z,1.10
2022-08-23T06:39:35.590Z,0.80
2022-08-23T06:42:38.022Z,0.80
2022-08-23T06:45:08.384Z,1.00
2022-08-23T06:47:38.779Z,1.13
2022-08-23T06:50:08.149Z,1.20
2022-08-23T06:52:38.050Z,0.85
2022-08-23T06:55:15.789Z,1.10
2022-08-23T06:57:45.023Z,0.80
2022-08-23T07:00:17.794Z,1.20
2022-08-23T07:02:50.251Z,1.00
2022-08-23T07:05:19.497Z,1.05
2022-08-23T07:07:48.673Z,1.00
2022-08-23T07:10:17.895Z,1.20
2022-08-23T07:12:47.047Z,1.10
2022-08-23T07:15:19.645Z,0.95
2022-08-23T07:17:49.065Z,0.95
2022-08-23T07:20:18.239Z,1.27
2022-08-23T07:22:47.484Z,1.63
2022-08-23T07:25:17.212Z,2.05
2022-08-23T07:27:47.453Z,1.38
2022-08-23T07:30:16.872Z,1.67
2022-08-23T07:32:47.297Z,0.98
2022-08-23T07:35:16.447Z,1.08
2022-08-23T07:37:45.713Z,1.73
2022-08-23T07:40:20.777Z,1.20
2022-08-23T07:42:50.052Z,1.15
2022-08-23T07:45:22.321Z,1.20
2022-08-23T07:47:55.963Z,0.80
2022-08-23T07:50:25.664Z,1.55
2022-08-23T07:52:59.866Z,1.40
2022-08-23T07:55:29.266Z,1.27
2022-08-23T07:57:58.597Z,1.15
2022-08-23T08:00:28.969Z,1.35
2022-08-23T08:02:58.363Z,1.30
2022-08-23T08:05:27.735Z,1.17
2022-08-23T08:07:57.039Z,1.00
2022-08-23T08:10:26.344Z,1.40
2022-08-23T08:12:55.500Z,1.17
2022-08-23T08:15:25.139Z,1.73
2022-08-23T08:17:54.937Z,1.10
2022-08-23T08:20:24.438Z,0.93
2022-08-23T08:22:58.569Z,2.13
2022-08-23T08:25:31.422Z,1.23
2022-08-23T08:28:00.944Z,1.00
2022-08-23T08:30:30.430Z,1.30
2022-08-23T08:32:59.646Z,0.80
2022-08-23T08:35:28.712Z,0.98
2022-08-23T08:37:57.847Z,0.98
2022-08-23T08:40:32.807Z,1.00
2022-08-23T08:43:08.044Z,1.30
2022-08-23T08:46:01.584Z,1.17
2022-08-23T08:48:36.573Z,1.08
2022-08-23T08:51:12.546Z,1.70
2022-08-23T08:53:47.180Z,1.40
2022-08-23T08:56:32.134Z,1.48
2022-08-23T08:59:08.322Z,1.58
2022-08-23T09:01:39.606Z,1.42
2022-08-23T09:04:14.114Z,1.80
2022-08-23T09:06:55.588Z,1.48
2022-08-23T09:09:49.018Z,1.88
2022-08-23T09:12:32.054Z,1.33
2022-08-23T09:15:08.113Z,1.58
2022-08-23T09:17:51.217Z,1.20
2022-08-23T09:20:22.501Z,1.70
2022-08-23T09:22:59.275Z,1.40
2022-08-23T09:25:28.468Z,1.30
2022-08-23T09:27:57.906Z,1.58
2022-08-23T09:30:55.768Z,1.77
2022-08-23T09:33:28.355Z,3.05
2022-08-23T09:36:14.270Z,1.20
2022-08-23T09:38:56.951Z,1.88
2022-08-23T09:41:30.518Z,1.67
2022-08-23T09:44:02.883Z,1.65
2022-08-23T09:46:36.824Z,1.58
2022-08-23T09:49:26.440Z,1.80
2022-08-23T09:51:59.895Z,2.70
2022-08-23T09:54:38.533Z,1.88
2022-08-23T09:57:11.496Z,2.28
2022-08-23T09:59:47.996Z,2.75
2022-08-23T10:02:31.564Z,1.95
2022-08-23T10:05:03.977Z,2.30
2022-08-23T10:07:43.654Z,1.95
2022-08-23T10:10:50.945Z,4.00
2022-08-23T10:13:21.777Z,1.30
2022-08-23T10:16:15.380Z,1.20
2022-08-23T10:19:05.803Z,1.30
2022-08-23T10:21:48.339Z,1.42
2022-08-23T10:24:41.679Z,1.30
2022-08-23T10:27:47.704Z,1.27
2022-08-23T10:30:24.737Z,1.20
2022-08-23T10:33:03.612Z,1.48
2022-08-23T10:36:11.212Z,1.30
2022-08-23T10:38:58.675Z,1.35
2022-08-23T10:41:36.926Z,2.70
2022-08-23T10:44:36.295Z,1.50
2022-08-23T10:47:43.220Z,2.22
2022-08-23T10:50:23.324Z,1.40
2022-08-23T10:53:09.565Z,1.48
2022-08-23T10:56:08.619Z,1.70
2022-08-23T10:58:49.688Z,1.65
2022-08-23T11:01:35.158Z,1.77
2022-08-23T11:04:18.469Z,1.75
2022-08-23T11:07:00.243Z,4.28
2022-08-23T11:09:30.619Z,3.97
2022-08-23T11:12:28.715Z,3.25
2022-08-23T11:15:10.636Z,1.45
2022-08-23T11:18:02.028Z,1.95
2022-08-23T11:21:35.183Z,2.47
2022-08-23T11:24:04.445Z,4.57
2022-08-23T11:26:41.970Z,4.18
2022-08-23T11:29:12.012Z,5.35
2022-08-23T11:31:49.956Z,5.38
2022-08-23T11:34:29.633Z,3.40
2022-08-23T11:37:20.786Z,2.80
2022-08-23T11:39:59.465Z,5.28
2022-08-23T11:42:40.891Z,4.10
2022-08-23T11:45:48.892Z,4.13
2022-08-23T11:48:23.046Z,5.82
2022-08-23T11:51:20.515Z,4.07
2022-08-23T11:53:55.350Z,3.13
2022-08-23T11:56:44.380Z,3.70
2022-08-23T11:59:54.881Z,3.55
2022-08-23T12:03:03.459Z,3.60
2022-08-23T12:06:04.518Z,4.45
2022-08-23T12:08:56.862Z,9.00
2022-08-23T12:11:47.375Z,13.45
2022-08-23T12:14:50.830Z,9.82
2022-08-23T12:17:21.494Z,7.97
2022-08-23T12:19:56.273Z,8.07
2022-08-23T12:22:32.106Z,7.35
2022-08-23T12:25:06.395Z,6.30
2022-08-23T12:27:38.068Z,6.28
2022-08-23T12:30:21.456Z,5.78
2022-08-23T12:33:11.890Z,5.38
2022-08-23T12:35:51.492Z,6.65
2022-08-23T12:38:48.157Z,8.55
2022-08-23T12:41:56.732Z,7.63
2022-08-23T12:44:29.523Z,5.82
2022-08-23T12:47:10.802Z,5.47
2022-08-23T12:49:40.218Z,4.50
2022-08-23T12:52:12.970Z,4.43
2022-08-23T12:54:46.276Z,4.15
2022-08-23T12:57:32.578Z,4.43
2022-08-23T13:00:20.557Z,5.90
2022-08-23T13:02:55.657Z,6.53
2022-08-23T13:05:40.173Z,5.95
2022-08-23T13:08:40.746Z,6.32
2022-08-23T13:11:11.632Z,4.30
2022-08-23T13:13:44.148Z,4.43
2022-08-23T13:16:31.621Z,9.43
2022-08-23T13:19:34.736Z,8.15
2022-08-23T13:22:28.219Z,8.75
2022-08-23T13:25:28.770Z,4.60
2022-08-23T13:28:20.392Z,5.50
2022-08-23T13:31:04.610Z,4.75
2022-08-23T13:33:34.163Z,5.88
2022-08-23T13:36:21.294Z,4.70
2022-08-23T13:38:51.459Z,6.68
2022-08-23T13:41:39.162Z,7.95
2022-08-23T13:44:10.443Z,11.07
2022-08-23T13:46:48.224Z,12.70
2022-08-23T13:49:31.890Z,11.25
2022-08-23T13:52:35.951Z,6.75
2022-08-23T13:54:53.657Z,7.40
2022-08-23T13:57:25.608Z,7.93
2022-08-23T14:02:27.720Z,8.05
2022-08-23T14:04:57.087Z,7.00
2022-08-23T14:07:26.540Z,7.50
2022-08-23T14:09:55.892Z,7.57
2022-08-23T14:12:29.064Z,7.70
2022-08-23T14:15:00.437Z,8.63
2022-08-23T14:17:30.979Z,9.98
2022-08-23T14:22:49.905Z,6.70
2022-08-23T14:25:19.663Z,6.28
2022-08-23T14:27:50.990Z,6.13
2022-08-23T14:30:32.586Z,5.85
2022-08-23T14:33:02.770Z,5.43
2022-08-23T14:35:32.689Z,6.68
2022-08-23T14:38:03.790Z,5.10
2022-08-23T14:40:33.639Z,5.90
2022-08-23T14:43:03.373Z,5.05
2022-08-23T14:45:32.645Z,6.05
2022-08-23T14:48:02.037Z,6.28
2022-08-23T14:50:31.334Z,5.75
2022-08-23T14:53:03.698Z,5.80
2022-08-23T14:55:32.922Z,6.03
2022-08-23T14:58:02.024Z,5.65
2022-08-23T15:00:31.631Z,5.43
2022-08-23T15:03:01.190Z,5.80
2022-08-23T15:05:30.664Z,6.85
2022-08-23T15:07:59.838Z,6.82
2022-08-23T15:13:27.107Z,4.45
2022-08-23T15:15:59.524Z,3.85
2022-08-23T15:18:29.032Z,4.00
2022-08-23T15:20:58.086Z,4.05
2022-08-23T15:23:27.132Z,3.92
2022-08-23T15:25:57.396Z,4.38
2022-08-23T15:28:26.830Z,4.40
2022-08-23T15:30:56.179Z,5.38
2022-08-23T15:33:27.016Z,6.80
2022-08-23T15:36:01.881Z,7.10
2022-08-23T15:38:33.334Z,4.75
2022-08-23T15:41:02.648Z,4.65
2022-08-23T15:43:34.406Z,4.75
2022-08-23T15:46:13.949Z,4.45
2022-08-23T15:49:16.311Z,4.75
2022-08-23T15:51:47.947Z,5.10
2022-08-23T15:54:17.252Z,4.90
2022-08-23T15:56:50.816Z,4.38
2022-08-23T15:59:22.775Z,4.35
2022-08-23T16:01:52.132Z,6.38
2022-08-23T16:04:21.669Z,5.85
2022-08-23T16:06:51.036Z,6.20
2022-08-23T16:09:24.193Z,6.80
2022-08-23T16:11:57.149Z,6.00
2022-08-23T16:14:29.476Z,4.93
2022-08-23T16:16:59.359Z,5.38
2022-08-23T16:19:29.413Z,4.60
2022-08-23T16:21:58.809Z,4.75
2022-08-23T16:24:28.946Z,3.67
2022-08-23T16:26:58.541Z,3.97
2022-08-23T16:29:32.978Z,4.57
2022-08-23T16:32:05.521Z,4.63
2022-08-23T16:34:35.037Z,4.35
2022-08-23T16:37:08.176Z,4.80
2022-08-23T16:39:38.353Z,4.93
2022-08-23T16:42:08.601Z,5.60
2022-08-23T16:44:37.943Z,5.00
2022-08-23T16:47:10.507Z,5.53
2022-08-23T16:49:39.578Z,4.60
2022-08-23T16:52:08.699Z,4.20
2022-08-23T16:54:38.454Z,4.95
2022-08-23T16:57:08.120Z,5.00
2022-08-23T16:59:40.548Z,4.22
2022-08-23T17:02:40.596Z,4.68
2022-08-23T17:05:13.572Z,5.18
2022-08-23T17:07:43.199Z,3.60
2022-08-23T17:10:14.283Z,4.53
2022-08-23T17:12:47.619Z,4.47
2022-08-23T17:15:20.640Z,4.70
2022-08-23T17:17:50.981Z,3.92
2022-08-23T17:20:22.965Z,4.57
2022-08-23T17:22:53.113Z,4.40
2022-08-23T17:25:22.729Z,4.30
2022-08-23T17:27:54.335Z,3.97
2022-08-23T17:30:26.008Z,4.38
2022-08-23T17:32:55.670Z,4.50
2022-08-23T17:35:28.260Z,4.60
2022-08-23T17:38:03.127Z,4.13
2022-08-23T17:40:37.074Z,5.20
2022-08-23T17:43:07.007Z,4.68
2022-08-23T17:45:46.602Z,4.72
2022-08-23T17:48:17.872Z,5.65
2022-08-23T17:50:48.110Z,5.80
2022-08-23T17:53:19.800Z,5.18
2022-08-23T17:55:48.918Z,4.65
2022-08-23T17:58:18.656Z,5.53
2022-08-23T18:00:47.804Z,5.20
2022-08-23T18:03:16.886Z,5.43
2022-08-23T18:05:47.354Z,5.05
2022-08-23T18:08:17.734Z,4.65
2022-08-23T18:10:46.967Z,4.65
2022-08-23T18:13:16.154Z,4.20
2022-08-23T18:15:45.241Z,4.43
2022-08-23T18:18:14.368Z,4.60
2022-08-23T18:20:43.451Z,4.28
2022-08-23T18:23:12.540Z,4.88
2022-08-23T18:25:42.451Z,4.70
2022-08-23T18:28:12.433Z,4.75
2022-08-23T18:30:51.815Z,5.18
2022-08-23T18:33:25.285Z,4.70
2022-08-23T18:36:00.838Z,4.95
2022-08-23T18:38:29.947Z,5.28
2022-08-23T18:40:58.953Z,4.85
2022-08-23T18:43:37.131Z,5.25
2022-08-23T18:46:07.966Z,5.22
2022-08-23T18:48:37.685Z,4.85
2022-08-23T18:51:17.742Z,4.72
2022-08-23T18:53:48.053Z,5.50
2022-08-23T18:56:17.453Z,4.70
2022-08-23T18:58:46.795Z,4.90
2022-08-23T19:01:30.861Z,4.72
2022-08-23T19:06:30.590Z,4.88
2022-08-23T19:09:02.002Z,4.50
2022-08-23T19:11:32.011Z,4.78
2022-08-23T19:14:02.942Z,5.05
2022-08-23T19:16:34.188Z,4.43
2022-08-23T19:19:03.765Z,4.72
2022-08-23T19:21:33.486Z,4.38
2022-08-23T19:24:02.910Z,4.60
2022-08-23T19:26:35.402Z,5.05
2022-08-23T19:29:08.880Z,5.00
2022-08-23T19:31:46.550Z,5.25
2022-08-23T19:34:18.568Z,5.90
2022-08-23T19:36:59.103Z,5.07
2022-08-23T19:39:31.737Z,4.82
2022-08-23T19:42:01.177Z,5.00
2022-08-23T19:44:32.174Z,5.07
2022-08-23T19:47:01.897Z,4.95
2022-08-23T19:49:32.612Z,5.15
2022-08-23T19:52:02.682Z,5.63
2022-08-23T19:54:32.151Z,4.15
2022-08-23T19:57:03.433Z,4.47
2022-08-23T19:59:40.240Z,6.97
2022-08-23T20:02:11.192Z,6.10
2022-08-23T20:04:40.556Z,5.20
2022-08-23T20:07:10.234Z,5.03
2022-08-23T20:09:39.578Z,4.90
2022-08-23T20:12:09.221Z,5.80
2022-08-23T20:14:38.979Z,5.25
2022-08-23T20:17:08.683Z,6.20
2022-08-23T20:19:38.236Z,5.50
2022-08-23T20:22:25.545Z,5.13
2022-08-23T20:24:54.868Z,5.10
2022-08-23T20:27:30.858Z,5.32
2022-08-23T20:30:02.431Z,5.80
2022-08-23T20:32:32.448Z,5.75
2022-08-23T20:35:03.026Z,5.80
2022-08-23T20:37:32.567Z,5.60
2022-08-23T20:40:02.199Z,5.43
2022-08-23T20:42:31.577Z,5.38
2022-08-23T20:45:00.963Z,5.57
2022-08-23T20:47:30.335Z,4.85
2022-08-23T20:49:59.625Z,5.28
2022-08-23T20:52:31.646Z,6.38
2022-08-23T20:55:04.180Z,5.70
2022-08-23T20:57:40.088Z,5.85
2022-08-23T21:00:10.212Z,6.32
2022-08-23T21:02:39.590Z,8.68
2022-08-23T21:05:09.134Z,6.97
2022-08-23T21:07:39.438Z,6.70
2022-08-23T21:10:09.017Z,6.43
2022-08-23T21:12:38.349Z,6.85
2022-08-23T21:15:10.917Z,26.27
2022-08-23T21:17:40.746Z,15.10
2022-08-23T21:20:10.377Z,9.48
2022-08-23T21:22:39.685Z,7.38
2022-08-23T21:25:09.403Z,6.00
2022-08-23T21:27:38.963Z,6.32
2022-08-23T21:30:09.474Z,6.10
2022-08-23T21:32:38.798Z,6.47
2022-08-23T21:35:09.143Z,6.43
2022-08-23T21:37:38.585Z,7.72
2022-08-23T21:40:09.287Z,7.82
2022-08-23T21:42:38.702Z,7.60
2022-08-23T21:45:10.315Z,7.63
2022-08-23T21:47:39.411Z,7.78
2022-08-23T21:50:09.337Z,7.05
2022-08-23T21:52:38.396Z,6.70
2022-08-23T21:55:07.944Z,7.53
2022-08-23T21:57:37.438Z,7.50
2022-08-23T22:00:11.342Z,6.97
2022-08-23T22:05:13.333Z,5.93
2022-08-23T22:07:42.411Z,7.07
2022-08-23T22:10:12.203Z,7.60
2022-08-23T22:12:41.536Z,7.28
2022-08-23T22:15:11.564Z,6.55
2022-08-23T22:17:40.614Z,5.82
2022-08-23T22:20:11.912Z,5.80
2022-08-23T22:22:41.159Z,5.97
2022-08-23T22:25:10.375Z,5.70
2022-08-23T22:27:39.499Z,5.20
2022-08-23T22:30:09.033Z,6.93
2022-08-23T22:32:38.271Z,7.22
2022-08-23T22:35:07.757Z,7.45
2022-08-23T22:37:49.418Z,7.35
2022-08-23T22:40:27.653Z,6.00
2022-08-23T22:42:56.719Z,6.00
2022-08-23T22:45:26.536Z,6.47
2022-08-23T22:47:55.970Z,7.90
2022-08-23T22:50:25.331Z,7.57
2022-08-23T22:52:54.730Z,9.07
2022-08-23T22:55:24.122Z,13.02
2022-08-23T22:57:53.518Z,9.80
2022-08-23T23:00:22.971Z,7.03
2022-08-23T23:02:52.302Z,6.82
2022-08-23T23:05:21.713Z,6.55
2022-08-23T23:08:09.118Z,7.75
2022-08-23T23:10:38.491Z,6.95
2022-08-23T23:13:07.842Z,7.63
2022-08-23T23:15:37.674Z,8.02
2022-08-23T23:18:07.149Z,8.77
2022-08-23T23:20:41.292Z,9.65
2022-08-23T23:23:16.467Z,8.00
2022-08-23T23:25:47.273Z,8.85
2022-08-23T23:28:19.105Z,8.05
2022-08-23T23:30:51.513Z,7.57
2022-08-23T23:33:22.779Z,7.32
2022-08-23T23:35:53.277Z,6.30
2022-08-23T23:38:22.725Z,6.30
2022-08-23T23:40:52.462Z,6.28
2022-08-23T23:43:21.810Z,5.75
2022-08-23T23:45:56.676Z,5.90
2022-08-23T23:48:26.253Z,5.63
2022-08-23T23:50:55.567Z,6.57
2022-08-23T23:53:30.609Z,7.13
2022-08-23T23:56:04.963Z,6.38
2022-08-23T23:58:35.959Z,5.65
